sensor_id;sensor_type;location;lat;lon;timestamp;P1;durP1;ratioP1;P2;durP2;ratioP2
52730;SDS011;38624;53.242;6.974;2022-07-10T00:01:07;8.47;;;1.50;;
52730;SDS011;38624;53.242;6.974;2022-07-10T00:03:33;6.83;;;1.40;;
52730;SDS011;38624;53.242;6.974;2022-07-10T00:05:58;7.77;;;1.50;;
52730;SDS011;38624;53.242;6.974;2022-07-10T00:08:24;7.97;;;1.40;;
52730;SDS011;38624;53.242;6.974;2022-07-10T00:10:50;6.10;;;1.37;;
52730;SDS011;38624;53.242;6.974;2022-07-10T00:13:15;5.53;;;1.37;;
52730;SDS011;38624;53.242;6.974;2022-07-10T00:15:41;9.67;;;1.63;;
52730;SDS011;38624;53.242;6.974;2022-07-10T00:18:07;6.87;;;1.20;;
52730;SDS011;38624;53.242;6.974;2022-07-10T00:20:32;4.67;;;1.00;;
52730;SDS011;38624;53.242;6.974;2022-07-10T00:22:59;8.52;;;1.58;;
52730;SDS011;38624;53.242;6.974;2022-07-10T00:25:25;9.30;;;1.57;;
52730;SDS011;38624;53.242;6.974;2022-07-10T00:27:50;12.13;;;1.43;;
52730;SDS011;38624;53.242;6.974;2022-07-10T00:30:16;7.30;;;1.30;;
52730;SDS011;38624;53.242;6.974;2022-07-10T00:32:42;5.70;;;1.40;;
52730;SDS011;38624;53.242;6.974;2022-07-10T00:35:07;6.57;;;1.40;;
52730;SDS011;38624;53.242;6.974;2022-07-10T00:37:33;7.43;;;1.70;;
52730;SDS011;38624;53.242;6.974;2022-07-10T00:39:59;9.67;;;1.67;;
52730;SDS011;38624;53.242;6.974;2022-07-10T00:42:26;9.90;;;1.63;;
52730;SDS011;38624;53.242;6.974;2022-07-10T00:44:52;9.40;;;1.58;;
52730;SDS011;38624;53.242;6.974;2022-07-10T00:47:18;5.53;;;1.40;;
52730;SDS011;38624;53.242;6.974;2022-07-10T00:49:44;5.82;;;1.50;;
52730;SDS011;38624;53.242;6.974;2022-07-10T00:52:12;4.57;;;1.20;;
52730;SDS011;38624;53.242;6.974;2022-07-10T00:54:41;13.13;;;1.83;;
52730;SDS011;38624;53.242;6.974;2022-07-10T00:57:09;8.32;;;1.30;;
52730;SDS011;38624;53.242;6.974;2022-07-10T00:59:37;7.57;;;1.30;;
52730;SDS011;38624;53.242;6.974;2022-07-10T01:02:03;8.70;;;1.50;;
52730;SDS011;38624;53.242;6.974;2022-07-10T01:04:30;9.95;;;1.52;;
52730;SDS011;38624;53.242;6.974;2022-07-10T01:06:56;8.30;;;1.73;;
52730;SDS011;38624;53.242;6.974;2022-07-10T01:09:22;8.20;;;1.40;;
52730;SDS011;38624;53.242;6.974;2022-07-10T01:11:48;9.70;;;1.43;;
52730;SDS011;38624;53.242;6.974;2022-07-10T01:14:15;5.47;;;1.27;;
52730;SDS011;38624;53.242;6.974;2022-07-10T01:16:41;8.50;;;1.30;;
52730;SDS011;38624;53.242;6.974;2022-07-10T01:19:07;8.32;;;1.80;;
52730;SDS011;38624;53.242;6.974;2022-07-10T01:21:34;8.47;;;1.63;;
52730;SDS011;38624;53.242;6.974;2022-07-10T01:24:08;12.73;;;1.42;;
52730;SDS011;38624;53.242;6.974;2022-07-10T01:26:35;6.03;;;1.35;;
52730;SDS011;38624;53.242;6.974;2022-07-10T01:29:06;7.05;;;1.50;;
52730;SDS011;38624;53.242;6.974;2022-07-10T01:31:32;7.50;;;1.45;;
52730;SDS011;38624;53.242;6.974;2022-07-10T01:33:59;4.70;;;1.00;;
52730;SDS011;38624;53.242;6.974;2022-07-10T01:36:26;7.40;;;1.63;;
52730;SDS011;38624;53.242;6.974;2022-07-10T01:38:54;6.72;;;1.20;;
52730;SDS011;38624;53.242;6.974;2022-07-10T01:41:20;8.32;;;1.55;;
52730;SDS011;38624;53.242;6.974;2022-07-10T01:43:46;5.72;;;1.17;;
52730;SDS011;38624;53.242;6.974;2022-07-10T01:46:13;10.40;;;1.30;;
52730;SDS011;38624;53.242;6.974;2022-07-10T01:48:40;8.35;;;1.27;;
52730;SDS011;38624;53.242;6.974;2022-07-10T01:51:06;7.50;;;1.10;;
52730;SDS011;38624;53.242;6.974;2022-07-10T01:53:32;11.45;;;1.23;;
52730;SDS011;38624;53.242;6.974;2022-07-10T01:55:59;9.85;;;1.25;;
52730;SDS011;38624;53.242;6.974;2022-07-10T01:58:28;5.70;;;1.50;;
52730;SDS011;38624;53.242;6.974;2022-07-10T02:00:53;6.22;;;1.05;;
52730;SDS011;38624;53.242;6.974;2022-07-10T02:03:19;8.83;;;1.33;;
52730;SDS011;38624;53.242;6.974;2022-07-10T02:06:03;6.57;;;1.40;;
52730;SDS011;38624;53.242;6.974;2022-07-10T02:08:29;10.07;;;1.80;;
52730;SDS011;38624;53.242;6.974;2022-07-10T02:10:54;7.03;;;1.27;;
52730;SDS011;38624;53.242;6.974;2022-07-10T02:13:20;6.70;;;1.33;;
52730;SDS011;38624;53.242;6.974;2022-07-10T02:15:46;6.00;;;1.40;;
52730;SDS011;38624;53.242;6.974;2022-07-10T02:18:12;6.07;;;1.30;;
52730;SDS011;38624;53.242;6.974;2022-07-10T02:20:38;8.90;;;1.45;;
52730;SDS011;38624;53.242;6.974;2022-07-10T02:23:04;4.43;;;1.43;;
52730;SDS011;38624;53.242;6.974;2022-07-10T02:25:32;6.95;;;1.42;;
52730;SDS011;38624;53.242;6.974;2022-07-10T02:27:58;10.82;;;1.45;;
52730;SDS011;38624;53.242;6.974;2022-07-10T02:30:24;8.52;;;1.25;;
52730;SDS011;38624;53.242;6.974;2022-07-10T02:32:49;8.13;;;1.47;;
52730;SDS011;38624;53.242;6.974;2022-07-10T02:35:15;8.57;;;1.67;;
52730;SDS011;38624;53.242;6.974;2022-07-10T02:37:41;10.37;;;1.97;;
52730;SDS011;38624;53.242;6.974;2022-07-10T02:40:07;7.63;;;1.43;;
52730;SDS011;38624;53.242;6.974;2022-07-10T02:42:35;8.38;;;1.55;;
52730;SDS011;38624;53.242;6.974;2022-07-10T02:45:00;9.50;;;1.90;;
52730;SDS011;38624;53.242;6.974;2022-07-10T02:47:26;8.23;;;1.60;;
52730;SDS011;38624;53.242;6.974;2022-07-10T02:49:51;7.83;;;1.43;;
52730;SDS011;38624;53.242;6.974;2022-07-10T02:52:17;5.30;;;1.17;;
52730;SDS011;38624;53.242;6.974;2022-07-10T02:54:43;7.70;;;1.80;;
52730;SDS011;38624;53.242;6.974;2022-07-10T02:57:09;7.13;;;1.50;;
52730;SDS011;38624;53.242;6.974;2022-07-10T02:59:34;8.57;;;1.53;;
52730;SDS011;38624;53.242;6.974;2022-07-10T03:02:01;6.47;;;1.42;;
52730;SDS011;38624;53.242;6.974;2022-07-10T03:04:26;11.67;;;1.93;;
52730;SDS011;38624;53.242;6.974;2022-07-10T03:06:52;8.43;;;1.50;;
52730;SDS011;38624;53.242;6.974;2022-07-10T03:09:18;8.80;;;1.40;;
52730;SDS011;38624;53.242;6.974;2022-07-10T03:11:44;8.70;;;1.80;;
52730;SDS011;38624;53.242;6.974;2022-07-10T03:14:10;8.33;;;1.50;;
52730;SDS011;38624;53.242;6.974;2022-07-10T03:16:35;7.43;;;1.50;;
52730;SDS011;38624;53.242;6.974;2022-07-10T03:19:01;5.60;;;1.50;;
52730;SDS011;38624;53.242;6.974;2022-07-10T03:21:28;7.00;;;1.30;;
52730;SDS011;38624;53.242;6.974;2022-07-10T03:23:55;8.18;;;1.60;;
52730;SDS011;38624;53.242;6.974;2022-07-10T03:26:21;6.47;;;1.50;;
52730;SDS011;38624;53.242;6.974;2022-07-10T03:28:46;9.37;;;1.27;;
52730;SDS011;38624;53.242;6.974;2022-07-10T03:31:12;10.20;;;1.43;;
52730;SDS011;38624;53.242;6.974;2022-07-10T03:33:38;5.77;;;1.30;;
52730;SDS011;38624;53.242;6.974;2022-07-10T03:36:04;5.73;;;1.40;;
52730;SDS011;38624;53.242;6.974;2022-07-10T03:38:30;7.00;;;1.45;;
52730;SDS011;38624;53.242;6.974;2022-07-10T03:43:23;8.05;;;1.40;;
52730;SDS011;38624;53.242;6.974;2022-07-10T03:45:52;9.98;;;1.60;;
52730;SDS011;38624;53.242;6.974;2022-07-10T03:48:17;13.75;;;1.48;;
52730;SDS011;38624;53.242;6.974;2022-07-10T03:50:43;7.90;;;1.70;;
52730;SDS011;38624;53.242;6.974;2022-07-10T03:53:09;13.73;;;1.83;;
52730;SDS011;38624;53.242;6.974;2022-07-10T03:55:34;7.13;;;1.50;;
52730;SDS011;38624;53.242;6.974;2022-07-10T03:58:00;10.30;;;1.67;;
52730;SDS011;38624;53.242;6.974;2022-07-10T04:00:29;7.95;;;1.50;;
52730;SDS011;38624;53.242;6.974;2022-07-10T04:03:03;10.05;;;1.50;;
52730;SDS011;38624;53.242;6.974;2022-07-10T04:05:30;5.82;;;1.50;;
52730;SDS011;38624;53.242;6.974;2022-07-10T04:07:57;10.35;;;1.58;;
52730;SDS011;38624;53.242;6.974;2022-07-10T04:10:28;9.07;;;1.50;;
52730;SDS011;38624;53.242;6.974;2022-07-10T04:12:55;10.50;;;2.10;;
52730;SDS011;38624;53.242;6.974;2022-07-10T04:15:21;8.57;;;1.52;;
52730;SDS011;38624;53.242;6.974;2022-07-10T04:17:47;8.40;;;1.42;;
52730;SDS011;38624;53.242;6.974;2022-07-10T04:20:14;7.05;;;1.55;;
52730;SDS011;38624;53.242;6.974;2022-07-10T04:22:40;11.55;;;1.80;;
52730;SDS011;38624;53.242;6.974;2022-07-10T04:25:06;11.03;;;1.63;;
52730;SDS011;38624;53.242;6.974;2022-07-10T04:27:33;10.35;;;1.60;;
52730;SDS011;38624;53.242;6.974;2022-07-10T04:29:59;8.87;;;1.63;;
52730;SDS011;38624;53.242;6.974;2022-07-10T04:32:25;11.23;;;1.60;;
52730;SDS011;38624;53.242;6.974;2022-07-10T04:34:52;9.70;;;1.63;;
52730;SDS011;38624;53.242;6.974;2022-07-10T04:37:18;14.02;;;2.25;;
52730;SDS011;38624;53.242;6.974;2022-07-10T04:39:44;8.97;;;1.77;;
52730;SDS011;38624;53.242;6.974;2022-07-10T04:42:10;11.63;;;1.63;;
52730;SDS011;38624;53.242;6.974;2022-07-10T04:44:36;7.53;;;1.30;;
52730;SDS011;38624;53.242;6.974;2022-07-10T04:47:02;12.87;;;1.87;;
52730;SDS011;38624;53.242;6.974;2022-07-10T04:49:28;9.73;;;1.70;;
52730;SDS011;38624;53.242;6.974;2022-07-10T04:51:54;9.80;;;1.47;;
52730;SDS011;38624;53.242;6.974;2022-07-10T04:56:47;10.73;;;1.73;;
52730;SDS011;38624;53.242;6.974;2022-07-10T04:59:12;11.17;;;1.60;;
52730;SDS011;38624;53.242;6.974;2022-07-10T05:01:38;8.47;;;1.77;;
52730;SDS011;38624;53.242;6.974;2022-07-10T05:04:04;7.17;;;1.50;;
52730;SDS011;38624;53.242;6.974;2022-07-10T05:06:29;13.10;;;1.77;;
52730;SDS011;38624;53.242;6.974;2022-07-10T05:08:55;8.73;;;1.70;;
52730;SDS011;38624;53.242;6.974;2022-07-10T05:11:21;11.23;;;1.80;;
52730;SDS011;38624;53.242;6.974;2022-07-10T05:13:47;7.95;;;1.58;;
52730;SDS011;38624;53.242;6.974;2022-07-10T05:16:14;9.73;;;1.95;;
52730;SDS011;38624;53.242;6.974;2022-07-10T05:18:41;8.77;;;1.50;;
52730;SDS011;38624;53.242;6.974;2022-07-10T05:21:07;9.57;;;2.00;;
52730;SDS011;38624;53.242;6.974;2022-07-10T05:23:33;8.73;;;1.50;;
52730;SDS011;38624;53.242;6.974;2022-07-10T05:25:59;9.15;;;1.67;;
52730;SDS011;38624;53.242;6.974;2022-07-10T05:28:25;8.53;;;1.50;;
52730;SDS011;38624;53.242;6.974;2022-07-10T05:30:50;9.17;;;1.50;;
52730;SDS011;38624;53.242;6.974;2022-07-10T05:33:16;10.27;;;1.58;;
52730;SDS011;38624;53.242;6.974;2022-07-10T05:35:42;12.70;;;1.80;;
52730;SDS011;38624;53.242;6.974;2022-07-10T05:38:08;7.20;;;1.67;;
52730;SDS011;38624;53.242;6.974;2022-07-10T05:40:34;12.27;;;1.80;;
52730;SDS011;38624;53.242;6.974;2022-07-10T05:42:59;8.40;;;2.40;;
52730;SDS011;38624;53.242;6.974;2022-07-10T05:45:25;9.63;;;1.73;;
52730;SDS011;38624;53.242;6.974;2022-07-10T05:50:18;9.23;;;1.48;;
52730;SDS011;38624;53.242;6.974;2022-07-10T05:52:44;10.07;;;1.80;;
52730;SDS011;38624;53.242;6.974;2022-07-10T05:55:09;7.73;;;1.83;;
52730;SDS011;38624;53.242;6.974;2022-07-10T05:57:35;9.20;;;1.83;;
52730;SDS011;38624;53.242;6.974;2022-07-10T06:00:03;10.43;;;1.45;;
52730;SDS011;38624;53.242;6.974;2022-07-10T06:02:30;11.88;;;1.98;;
52730;SDS011;38624;53.242;6.974;2022-07-10T06:04:55;9.77;;;1.40;;
52730;SDS011;38624;53.242;6.974;2022-07-10T06:07:21;11.77;;;1.90;;
52730;SDS011;38624;53.242;6.974;2022-07-10T06:09:47;8.80;;;1.50;;
52730;SDS011;38624;53.242;6.974;2022-07-10T06:12:13;7.73;;;1.93;;
52730;SDS011;38624;53.242;6.974;2022-07-10T06:14:40;6.88;;;1.50;;
52730;SDS011;38624;53.242;6.974;2022-07-10T06:17:06;5.95;;;1.65;;
52730;SDS011;38624;53.242;6.974;2022-07-10T06:19:32;11.40;;;1.87;;
52730;SDS011;38624;53.242;6.974;2022-07-10T06:21:58;10.17;;;1.77;;
52730;SDS011;38624;53.242;6.974;2022-07-10T06:24:42;6.10;;;1.80;;
52730;SDS011;38624;53.242;6.974;2022-07-10T06:27:09;9.63;;;1.63;;
52730;SDS011;38624;53.242;6.974;2022-07-10T06:29:35;6.50;;;1.60;;
52730;SDS011;38624;53.242;6.974;2022-07-10T06:32:00;6.50;;;1.47;;
52730;SDS011;38624;53.242;6.974;2022-07-10T06:34:26;5.67;;;1.50;;
52730;SDS011;38624;53.242;6.974;2022-07-10T06:36:52;5.03;;;1.40;;
52730;SDS011;38624;53.242;6.974;2022-07-10T06:39:18;7.23;;;1.50;;
52730;SDS011;38624;53.242;6.974;2022-07-10T06:41:43;8.63;;;1.43;;
52730;SDS011;38624;53.242;6.974;2022-07-10T06:44:09;11.17;;;1.60;;
52730;SDS011;38624;53.242;6.974;2022-07-10T06:46:35;6.23;;;1.23;;
52730;SDS011;38624;53.242;6.974;2022-07-10T06:49:00;5.83;;;1.47;;
52730;SDS011;38624;53.242;6.974;2022-07-10T06:51:26;8.30;;;1.83;;
52730;SDS011;38624;53.242;6.974;2022-07-10T06:53:52;9.17;;;1.67;;
52730;SDS011;38624;53.242;6.974;2022-07-10T06:56:18;9.50;;;1.33;;
52730;SDS011;38624;53.242;6.974;2022-07-10T06:58:44;5.38;;;1.13;;
52730;SDS011;38624;53.242;6.974;2022-07-10T07:01:10;5.07;;;1.17;;
52730;SDS011;38624;53.242;6.974;2022-07-10T07:03:35;3.13;;;0.90;;
52730;SDS011;38624;53.242;6.974;2022-07-10T07:06:01;3.33;;;1.13;;
52730;SDS011;38624;53.242;6.974;2022-07-10T07:08:30;5.07;;;1.13;;
52730;SDS011;38624;53.242;6.974;2022-07-10T07:10:56;8.85;;;0.98;;
52730;SDS011;38624;53.242;6.974;2022-07-10T07:13:21;6.30;;;1.27;;
52730;SDS011;38624;53.242;6.974;2022-07-10T07:15:47;5.90;;;1.00;;
52730;SDS011;38624;53.242;6.974;2022-07-10T07:18:22;8.70;;;1.25;;
52730;SDS011;38624;53.242;6.974;2022-07-10T07:20:56;6.25;;;1.20;;
52730;SDS011;38624;53.242;6.974;2022-07-10T07:23:41;6.63;;;1.15;;
52730;SDS011;38624;53.242;6.974;2022-07-10T07:26:07;5.80;;;1.23;;
52730;SDS011;38624;53.242;6.974;2022-07-10T07:28:33;6.53;;;1.23;;
52730;SDS011;38624;53.242;6.974;2022-07-10T07:30:58;6.17;;;1.10;;
52730;SDS011;38624;53.242;6.974;2022-07-10T07:33:24;4.90;;;1.05;;
52730;SDS011;38624;53.242;6.974;2022-07-10T07:35:50;6.63;;;1.17;;
52730;SDS011;38624;53.242;6.974;2022-07-10T07:38:16;5.97;;;1.40;;
52730;SDS011;38624;53.242;6.974;2022-07-10T07:40:42;4.97;;;1.30;;
52730;SDS011;38624;53.242;6.974;2022-07-10T07:43:08;3.63;;;1.20;;
52730;SDS011;38624;53.242;6.974;2022-07-10T07:45:34;8.67;;;1.00;;
52730;SDS011;38624;53.242;6.974;2022-07-10T07:48:00;6.07;;;1.10;;
52730;SDS011;38624;53.242;6.974;2022-07-10T07:52:54;7.30;;;1.33;;
52730;SDS011;38624;53.242;6.974;2022-07-10T07:55:21;3.33;;;0.90;;
52730;SDS011;38624;53.242;6.974;2022-07-10T07:57:47;7.38;;;1.33;;
52730;SDS011;38624;53.242;6.974;2022-07-10T08:00:13;7.50;;;1.00;;
52730;SDS011;38624;53.242;6.974;2022-07-10T08:02:42;4.13;;;0.93;;
52730;SDS011;38624;53.242;6.974;2022-07-10T08:05:08;2.75;;;0.82;;
52730;SDS011;38624;53.242;6.974;2022-07-10T08:07:38;5.13;;;1.10;;
52730;SDS011;38624;53.242;6.974;2022-07-10T08:10:07;5.20;;;1.05;;
52730;SDS011;38624;53.242;6.974;2022-07-10T08:12:34;4.05;;;1.08;;
52730;SDS011;38624;53.242;6.974;2022-07-10T08:15:00;3.40;;;0.70;;
52730;SDS011;38624;53.242;6.974;2022-07-10T08:17:26;4.93;;;0.97;;
52730;SDS011;38624;53.242;6.974;2022-07-10T08:19:52;5.85;;;1.08;;
52730;SDS011;38624;53.242;6.974;2022-07-10T08:22:18;5.32;;;1.23;;
52730;SDS011;38624;53.242;6.974;2022-07-10T08:24:44;4.43;;;1.03;;
52730;SDS011;38624;53.242;6.974;2022-07-10T08:27:10;4.30;;;1.40;;
52730;SDS011;38624;53.242;6.974;2022-07-10T08:29:37;4.80;;;1.02;;
52730;SDS011;38624;53.242;6.974;2022-07-10T08:32:03;3.30;;;1.05;;
52730;SDS011;38624;53.242;6.974;2022-07-10T08:34:30;6.05;;;1.13;;
52730;SDS011;38624;53.242;6.974;2022-07-10T08:36:58;5.82;;;1.30;;
52730;SDS011;38624;53.242;6.974;2022-07-10T08:39:23;5.75;;;1.10;;
52730;SDS011;38624;53.242;6.974;2022-07-10T08:41:49;4.70;;;1.10;;
52730;SDS011;38624;53.242;6.974;2022-07-10T08:44:16;4.30;;;1.00;;
52730;SDS011;38624;53.242;6.974;2022-07-10T08:46:43;4.45;;;1.10;;
52730;SDS011;38624;53.242;6.974;2022-07-10T08:49:09;5.10;;;1.00;;
52730;SDS011;38624;53.242;6.974;2022-07-10T08:54:31;5.63;;;0.90;;
52730;SDS011;38624;53.242;6.974;2022-07-10T08:56:58;7.28;;;1.33;;
52730;SDS011;38624;53.242;6.974;2022-07-10T08:59:25;5.95;;;0.98;;
52730;SDS011;38624;53.242;6.974;2022-07-10T09:04:19;5.35;;;1.20;;
52730;SDS011;38624;53.242;6.974;2022-07-10T09:06:46;3.78;;;0.90;;
52730;SDS011;38624;53.242;6.974;2022-07-10T09:09:12;4.22;;;0.88;;
52730;SDS011;38624;53.242;6.974;2022-07-10T09:11:38;6.97;;;0.70;;
52730;SDS011;38624;53.242;6.974;2022-07-10T09:14:11;4.35;;;0.80;;
52730;SDS011;38624;53.242;6.974;2022-07-10T09:16:40;5.68;;;0.90;;
52730;SDS011;38624;53.242;6.974;2022-07-10T09:19:28;2.22;;;0.70;;
52730;SDS011;38624;53.242;6.974;2022-07-10T09:21:54;5.70;;;0.90;;
52730;SDS011;38624;53.242;6.974;2022-07-10T09:24:28;3.25;;;0.75;;
52730;SDS011;38624;53.242;6.974;2022-07-10T09:27:00;4.10;;;0.80;;
52730;SDS011;38624;53.242;6.974;2022-07-10T09:29:28;7.45;;;0.90;;
52730;SDS011;38624;53.242;6.974;2022-07-10T09:32:01;2.42;;;0.90;;
52730;SDS011;38624;53.242;6.974;2022-07-10T09:34:37;5.90;;;0.80;;
52730;SDS011;38624;53.242;6.974;2022-07-10T09:37:20;3.97;;;0.93;;
52730;SDS011;38624;53.242;6.974;2022-07-10T09:39:53;3.67;;;0.80;;
52730;SDS011;38624;53.242;6.974;2022-07-10T09:42:29;4.38;;;0.90;;
52730;SDS011;38624;53.242;6.974;2022-07-10T09:47:40;4.65;;;1.02;;
52730;SDS011;38624;53.242;6.974;2022-07-10T09:53:05;5.97;;;1.10;;
52730;SDS011;38624;53.242;6.974;2022-07-10T09:55:34;3.28;;;0.75;;
52730;SDS011;38624;53.242;6.974;2022-07-10T09:58:02;2.38;;;0.68;;
52730;SDS011;38624;53.242;6.974;2022-07-10T10:00:29;3.85;;;0.85;;
52730;SDS011;38624;53.242;6.974;2022-07-10T10:03:03;4.95;;;1.15;;
52730;SDS011;38624;53.242;6.974;2022-07-10T10:05:43;5.68;;;1.00;;
52730;SDS011;38624;53.242;6.974;2022-07-10T10:10:48;7.00;;;0.90;;
52730;SDS011;38624;53.242;6.974;2022-07-10T10:13:21;4.53;;;0.80;;
52730;SDS011;38624;53.242;6.974;2022-07-10T10:15:48;5.43;;;0.90;;
52730;SDS011;38624;53.242;6.974;2022-07-10T10:18:19;4.70;;;0.95;;
52730;SDS011;38624;53.242;6.974;2022-07-10T10:20:47;4.38;;;0.80;;
52730;SDS011;38624;53.242;6.974;2022-07-10T10:23:15;4.10;;;1.02;;
52730;SDS011;38624;53.242;6.974;2022-07-10T10:25:54;2.13;;;0.70;;
52730;SDS011;38624;53.242;6.974;2022-07-10T10:28:22;4.20;;;0.70;;
52730;SDS011;38624;53.242;6.974;2022-07-10T10:30:49;4.25;;;0.95;;
52730;SDS011;38624;53.242;6.974;2022-07-10T10:35:57;2.70;;;0.88;;
52730;SDS011;38624;53.242;6.974;2022-07-10T10:38:24;3.60;;;0.90;;
52730;SDS011;38624;53.242;6.974;2022-07-10T10:40:50;3.95;;;1.23;;
52730;SDS011;38624;53.242;6.974;2022-07-10T10:43:22;10.93;;;0.93;;
52730;SDS011;38624;53.242;6.974;2022-07-10T10:45:50;4.00;;;0.90;;
52730;SDS011;38624;53.242;6.974;2022-07-10T10:48:17;2.78;;;0.70;;
52730;SDS011;38624;53.242;6.974;2022-07-10T10:50:47;2.10;;;0.80;;
52730;SDS011;38624;53.242;6.974;2022-07-10T10:53:18;3.28;;;0.70;;
52730;SDS011;38624;53.242;6.974;2022-07-10T11:14:24;0.63;;;0.40;;
52730;SDS011;38624;53.242;6.974;2022-07-10T11:16:54;0.95;;;0.40;;
52730;SDS011;38624;53.242;6.974;2022-07-10T11:19:24;0.55;;;0.30;;
52730;SDS011;38624;53.242;6.974;2022-07-10T11:28:10;1.30;;;0.50;;
52730;SDS011;38624;53.242;6.974;2022-07-10T11:31:10;2.70;;;0.63;;
52730;SDS011;38624;53.242;6.974;2022-07-10T11:33:29;2.17;;;0.60;;
52730;SDS011;38624;53.242;6.974;2022-07-10T11:36:09;2.33;;;0.85;;
52730;SDS011;38624;53.242;6.974;2022-07-10T11:38:38;4.57;;;0.90;;
52730;SDS011;38624;53.242;6.974;2022-07-10T11:41:04;2.83;;;0.90;;
52730;SDS011;38624;53.242;6.974;2022-07-10T11:43:36;2.47;;;0.88;;
52730;SDS011;38624;53.242;6.974;2022-07-10T11:46:14;2.15;;;0.80;;
52730;SDS011;38624;53.242;6.974;2022-07-10T11:48:40;3.13;;;1.02;;
52730;SDS011;38624;53.242;6.974;2022-07-10T11:53:41;2.30;;;0.90;;
52730;SDS011;38624;53.242;6.974;2022-07-10T11:56:29;3.35;;;1.05;;
52730;SDS011;38624;53.242;6.974;2022-07-10T11:59:04;2.92;;;0.90;;
52730;SDS011;38624;53.242;6.974;2022-07-10T12:01:31;1.75;;;0.90;;
52730;SDS011;38624;53.242;6.974;2022-07-10T12:03:59;2.50;;;1.00;;
52730;SDS011;38624;53.242;6.974;2022-07-10T12:06:27;3.17;;;1.00;;
52730;SDS011;38624;53.242;6.974;2022-07-10T12:08:54;3.22;;;1.00;;
52730;SDS011;38624;53.242;6.974;2022-07-10T12:11:21;3.95;;;1.05;;
52730;SDS011;38624;53.242;6.974;2022-07-10T12:13:47;6.93;;;1.50;;
52730;SDS011;38624;53.242;6.974;2022-07-10T12:16:15;2.42;;;1.27;;
52730;SDS011;38624;53.242;6.974;2022-07-10T12:18:41;4.60;;;1.30;;
52730;SDS011;38624;53.242;6.974;2022-07-10T12:21:08;3.30;;;1.25;;
52730;SDS011;38624;53.242;6.974;2022-07-10T12:23:35;4.28;;;1.30;;
52730;SDS011;38624;53.242;6.974;2022-07-10T12:26:04;3.47;;;1.30;;
52730;SDS011;38624;53.242;6.974;2022-07-10T12:28:50;3.38;;;1.20;;
52730;SDS011;38624;53.242;6.974;2022-07-10T12:31:20;5.07;;;1.35;;
52730;SDS011;38624;53.242;6.974;2022-07-10T12:33:54;6.72;;;1.40;;
52730;SDS011;38624;53.242;6.974;2022-07-10T12:36:23;4.68;;;1.50;;
52730;SDS011;38624;53.242;6.974;2022-07-10T12:41:20;5.82;;;1.60;;
52730;SDS011;38624;53.242;6.974;2022-07-10T12:43:49;5.82;;;1.60;;
52730;SDS011;38624;53.242;6.974;2022-07-10T12:46:16;5.63;;;1.30;;
52730;SDS011;38624;53.242;6.974;2022-07-10T12:49:05;6.53;;;1.60;;
52730;SDS011;38624;53.242;6.974;2022-07-10T12:51:33;3.90;;;1.50;;
52730;SDS011;38624;53.242;6.974;2022-07-10T12:54:00;8.23;;;1.88;;
52730;SDS011;38624;53.242;6.974;2022-07-10T12:58:51;5.20;;;1.63;;
52730;SDS011;38624;53.242;6.974;2022-07-10T13:01:17;6.07;;;1.70;;
52730;SDS011;38624;53.242;6.974;2022-07-10T13:03:43;4.33;;;1.57;;
52730;SDS011;38624;53.242;6.974;2022-07-10T13:06:32;4.90;;;1.50;;
52730;SDS011;38624;53.242;6.974;2022-07-10T13:08:56;5.27;;;1.77;;
52730;SDS011;38624;53.242;6.974;2022-07-10T13:11:22;4.00;;;1.50;;
52730;SDS011;38624;53.242;6.974;2022-07-10T13:13:48;8.38;;;1.50;;
52730;SDS011;38624;53.242;6.974;2022-07-10T13:16:14;3.60;;;1.42;;
52730;SDS011;38624;53.242;6.974;2022-07-10T13:18:43;6.60;;;1.65;;
52730;SDS011;38624;53.242;6.974;2022-07-10T13:21:10;4.70;;;1.45;;
52730;SDS011;38624;53.242;6.974;2022-07-10T13:23:37;5.43;;;1.58;;
52730;SDS011;38624;53.242;6.974;2022-07-10T13:26:04;5.47;;;1.55;;
52730;SDS011;38624;53.242;6.974;2022-07-10T13:28:32;6.07;;;1.38;;
52730;SDS011;38624;53.242;6.974;2022-07-10T13:30:58;4.70;;;1.65;;
52730;SDS011;38624;53.242;6.974;2022-07-10T13:33:24;6.03;;;1.40;;
52730;SDS011;38624;53.242;6.974;2022-07-10T13:35:50;6.47;;;1.48;;
52730;SDS011;38624;53.242;6.974;2022-07-10T13:38:17;4.38;;;1.38;;
52730;SDS011;38624;53.242;6.974;2022-07-10T13:40:44;7.88;;;1.67;;
52730;SDS011;38624;53.242;6.974;2022-07-10T13:43:12;6.40;;;1.30;;
52730;SDS011;38624;53.242;6.974;2022-07-10T13:45:38;4.72;;;1.63;;
52730;SDS011;38624;53.242;6.974;2022-07-10T13:48:11;6.50;;;1.48;;
52730;SDS011;38624;53.242;6.974;2022-07-10T13:50:42;5.43;;;1.70;;
52730;SDS011;38624;53.242;6.974;2022-07-10T13:53:11;6.32;;;1.50;;
52730;SDS011;38624;53.242;6.974;2022-07-10T13:55:37;18.80;;;1.90;;
52730;SDS011;38624;53.242;6.974;2022-07-10T13:58:03;4.18;;;1.50;;
52730;SDS011;38624;53.242;6.974;2022-07-10T14:00:29;7.70;;;1.50;;
52730;SDS011;38624;53.242;6.974;2022-07-10T14:02:55;6.70;;;1.93;;
52730;SDS011;38624;53.242;6.974;2022-07-10T14:05:23;5.40;;;2.05;;
52730;SDS011;38624;53.242;6.974;2022-07-10T14:07:49;5.20;;;1.50;;
52730;SDS011;38624;53.242;6.974;2022-07-10T14:10:14;6.63;;;1.90;;
52730;SDS011;38624;53.242;6.974;2022-07-10T14:12:41;5.38;;;1.70;;
52730;SDS011;38624;53.242;6.974;2022-07-10T14:15:07;6.10;;;1.70;;
52730;SDS011;38624;53.242;6.974;2022-07-10T14:17:33;7.10;;;1.70;;
52730;SDS011;38624;53.242;6.974;2022-07-10T14:19:59;4.17;;;1.50;;
52730;SDS011;38624;53.242;6.974;2022-07-10T14:22:25;4.63;;;1.50;;
52730;SDS011;38624;53.242;6.974;2022-07-10T14:24:51;5.20;;;1.50;;
52730;SDS011;38624;53.242;6.974;2022-07-10T14:27:18;5.43;;;1.85;;
52730;SDS011;38624;53.242;6.974;2022-07-10T14:29:44;3.45;;;1.60;;
52730;SDS011;38624;53.242;6.974;2022-07-10T14:32:10;4.47;;;1.70;;
52730;SDS011;38624;53.242;6.974;2022-07-10T14:34:36;5.40;;;1.77;;
52730;SDS011;38624;53.242;6.974;2022-07-10T14:37:01;6.17;;;1.53;;
52730;SDS011;38624;53.242;6.974;2022-07-10T14:39:27;6.07;;;2.00;;
52730;SDS011;38624;53.242;6.974;2022-07-10T14:41:53;3.83;;;1.60;;
52730;SDS011;38624;53.242;6.974;2022-07-10T14:44:19;4.27;;;1.60;;
52730;SDS011;38624;53.242;6.974;2022-07-10T14:46:44;7.97;;;2.00;;
52730;SDS011;38624;53.242;6.974;2022-07-10T14:49:10;5.77;;;1.93;;
52730;SDS011;38624;53.242;6.974;2022-07-10T14:51:36;7.33;;;1.97;;
52730;SDS011;38624;53.242;6.974;2022-07-10T14:54:02;8.27;;;1.70;;
52730;SDS011;38624;53.242;6.974;2022-07-10T14:56:28;6.00;;;1.48;;
52730;SDS011;38624;53.242;6.974;2022-07-10T14:58:54;7.07;;;1.80;;
52730;SDS011;38624;53.242;6.974;2022-07-10T15:01:19;6.53;;;1.73;;
52730;SDS011;38624;53.242;6.974;2022-07-10T15:03:45;4.87;;;1.93;;
52730;SDS011;38624;53.242;6.974;2022-07-10T15:06:11;9.73;;;1.73;;
52730;SDS011;38624;53.242;6.974;2022-07-10T15:08:36;6.30;;;2.30;;
52730;SDS011;38624;53.242;6.974;2022-07-10T15:11:02;3.20;;;1.50;;
52730;SDS011;38624;53.242;6.974;2022-07-10T15:13:30;4.32;;;1.65;;
52730;SDS011;38624;53.242;6.974;2022-07-10T15:15:56;5.30;;;1.88;;
52730;SDS011;38624;53.242;6.974;2022-07-10T15:18:21;6.13;;;1.97;;
52730;SDS011;38624;53.242;6.974;2022-07-10T15:20:47;5.37;;;1.70;;
52730;SDS011;38624;53.242;6.974;2022-07-10T15:23:13;7.03;;;1.90;;
52730;SDS011;38624;53.242;6.974;2022-07-10T15:25:40;6.97;;;1.85;;
52730;SDS011;38624;53.242;6.974;2022-07-10T15:28:06;9.52;;;1.75;;
52730;SDS011;38624;53.242;6.974;2022-07-10T15:30:33;5.53;;;1.65;;
52730;SDS011;38624;53.242;6.974;2022-07-10T15:35:25;7.07;;;1.50;;
52730;SDS011;38624;53.242;6.974;2022-07-10T15:37:50;10.37;;;2.67;;
52730;SDS011;38624;53.242;6.974;2022-07-10T15:40:16;5.82;;;1.60;;
52730;SDS011;38624;53.242;6.974;2022-07-10T15:42:42;3.83;;;1.60;;
52730;SDS011;38624;53.242;6.974;2022-07-10T15:45:08;4.47;;;1.67;;
52730;SDS011;38624;53.242;6.974;2022-07-10T15:47:34;6.15;;;1.75;;